sensor_id;sensor_type;location;lat;lon;timestamp;noise_LAeq;noise_LA_min;noise_LA_max;noise_LA01;noise_LA95
60031;Laerm;45901;47.600;9.890;2022-09-03T00:02:35;46.39;43.44;50.74;;
60031;Laerm;45901;47.600;9.890;2022-09-03T00:05:12;45.96;43.68;50.38;;
60031;Laerm;45901;47.600;9.890;2022-09-03T00:07:48;45.86;43.58;48.67;;
60031;Laerm;45901;47.600;9.890;2022-09-03T00:10:27;45.45;43.29;48.96;;
60031;Laerm;45901;47.600;9.890;2022-09-03T00:12:59;44.93;42.93;48.52;;
60031;Laerm;45901;47.600;9.890;2022-09-03T00:15:31;44.47;42.65;58.34;;
60031;Laerm;45901;47.600;9.890;2022-09-03T00:18:07;44.15;42.29;47.26;;
60031;Laerm;45901;47.600;9.890;2022-09-03T00:20:40;44.20;41.89;50.53;;
60031;Laerm;45901;47.600;9.890;2022-09-03T00:23:12;44.30;41.96;53.28;;
60031;Laerm;45901;47.600;9.890;2022-09-03T00:25:49;43.94;41.53;49.93;;
60031;Laerm;45901;47.600;9.890;2022-09-03T00:28:23;56.08;41.96;92.03;;
60031;Laerm;45901;47.600;9.890;2022-09-03T00:31:08;46.59;43.24;57.93;;
60031;Laerm;45901;47.600;9.890;2022-09-03T00:33:39;45.22;42.71;70.59;;
60031;Laerm;45901;47.600;9.890;2022-09-03T00:36:15;43.85;42.35;49.16;;
60031;Laerm;45901;47.600;9.890;2022-09-03T00:38:42;46.19;42.59;51.12;;
60031;Laerm;45901;47.600;9.890;2022-09-03T00:41:23;45.24;41.82;52.07;;
60031;Laerm;45901;47.600;9.890;2022-09-03T00:44:14;48.16;44.51;55.69;;
60031;Laerm;45901;47.600;9.890;2022-09-03T00:46:53;46.25;42.09;60.80;;
60031;Laerm;45901;47.600;9.890;2022-09-03T00:49:36;43.75;40.98;47.24;;
60031;Laerm;45901;47.600;9.890;2022-09-03T00:52:17;43.91;42.16;45.30;;
60031;Laerm;45901;47.600;9.890;2022-09-03T00:54:58;43.94;42.03;45.33;;
60031;Laerm;45901;47.600;9.890;2022-09-03T00:57:43;43.78;42.35;51.84;;
60031;Laerm;45901;47.600;9.890;2022-09-03T01:00:18;45.71;42.09;61.13;;
60031;Laerm;45901;47.600;9.890;2022-09-03T01:02:57;43.60;42.03;45.36;;
60031;Laerm;45901;47.600;9.890;2022-09-03T01:05:42;43.65;42.16;45.11;;
60031;Laerm;45901;47.600;9.890;2022-09-03T01:08:29;43.54;42.09;44.90;;
60031;Laerm;45901;47.600;9.890;2022-09-03T01:11:10;43.42;41.61;44.62;;
60031;Laerm;45901;47.600;9.890;2022-09-03T01:13:51;43.35;41.82;44.69;;
60031;Laerm;45901;47.600;9.890;2022-09-03T01:16:29;43.67;41.53;59.51;;
60031;Laerm;45901;47.600;9.890;2022-09-03T01:19:14;43.21;41.46;44.51;;
60031;Laerm;45901;47.600;9.890;2022-09-03T01:22:13;43.46;41.68;63.56;;
60031;Laerm;45901;47.600;9.890;2022-09-03T01:25:13;43.33;41.82;45.51;;
60031;Laerm;45901;47.600;9.890;2022-09-03T01:30:50;44.06;41.82;59.60;;
60031;Laerm;45901;47.600;9.890;2022-09-03T01:33:27;56.28;42.03;92.43;;
60031;Laerm;45901;47.600;9.890;2022-09-03T01:36:07;46.82;43.68;72.72;;
60031;Laerm;45901;47.600;9.890;2022-09-03T01:38:44;45.17;43.39;49.07;;
60031;Laerm;45901;47.600;9.890;2022-09-03T01:41:26;45.21;43.24;48.37;;
60031;Laerm;45901;47.600;9.890;2022-09-03T01:44:23;44.92;42.59;58.57;;
60031;Laerm;45901;47.600;9.890;2022-09-03T01:47:04;44.15;42.30;48.67;;
60031;Laerm;45901;47.600;9.890;2022-09-03T01:49:44;44.95;42.41;57.85;;
60031;Laerm;45901;47.600;9.890;2022-09-03T01:52:21;44.63;43.04;49.71;;
60031;Laerm;45901;47.600;9.890;2022-09-03T01:55:05;44.63;42.71;49.36;;
60031;Laerm;45901;47.600;9.890;2022-09-03T01:57:52;45.12;42.82;50.31;;
60031;Laerm;45901;47.600;9.890;2022-09-03T02:00:24;46.22;42.16;59.33;;
60031;Laerm;45901;47.600;9.890;2022-09-03T02:02:54;43.29;41.61;44.65;;
60031;Laerm;45901;47.600;9.890;2022-09-03T02:05:23;43.25;41.89;44.58;;
60031;Laerm;45901;47.600;9.890;2022-09-03T02:07:56;43.42;42.03;44.97;;
60031;Laerm;45901;47.600;9.890;2022-09-03T02:10:34;43.52;42.09;44.65;;
60031;Laerm;45901;47.600;9.890;2022-09-03T02:13:07;43.39;41.68;44.76;;
60031;Laerm;45901;47.600;9.890;2022-09-03T02:15:40;43.57;41.68;59.45;;
60031;Laerm;45901;47.600;9.890;2022-09-03T02:18:21;43.25;41.75;44.39;;
60031;Laerm;45901;47.600;9.890;2022-09-03T02:21:15;56.02;41.61;92.75;;
60031;Laerm;45901;47.600;9.890;2022-09-03T02:23:46;46.13;44.11;50.42;;
60031;Laerm;45901;47.600;9.890;2022-09-03T02:26:18;45.89;43.99;49.82;;
60031;Laerm;45901;47.600;9.890;2022-09-03T02:28:48;45.40;43.09;49.16;;
60031;Laerm;45901;47.600;9.890;2022-09-03T02:31:20;44.98;43.39;56.17;;
60031;Laerm;45901;47.600;9.890;2022-09-03T02:33:50;44.91;43.09;49.46;;
60031;Laerm;45901;47.600;9.890;2022-09-03T02:36:27;45.58;43.39;60.25;;
60031;Laerm;45901;47.600;9.890;2022-09-03T02:38:57;50.10;44.90;56.27;;
60031;Laerm;45901;47.600;9.890;2022-09-03T02:41:26;47.78;44.34;52.79;;
60031;Laerm;45901;47.600;9.890;2022-09-03T02:44:00;53.62;43.39;82.91;;
60031;Laerm;45901;47.600;9.890;2022-09-03T02:46:34;55.67;46.95;61.00;;
60031;Laerm;45901;47.600;9.890;2022-09-03T02:49:03;55.81;49.27;62.29;;
60031;Laerm;45901;47.600;9.890;2022-09-03T02:51:33;54.09;46.28;77.89;;
60031;Laerm;45901;47.600;9.890;2022-09-03T02:54:01;55.18;46.73;67.82;;
60031;Laerm;45901;47.600;9.890;2022-09-03T02:56:28;57.09;48.13;63.40;;
60031;Laerm;45901;47.600;9.890;2022-09-03T02:58:56;53.09;48.77;61.48;;
60031;Laerm;45901;47.600;9.890;2022-09-03T03:01:24;57.14;49.60;65.03;;
60031;Laerm;45901;47.600;9.890;2022-09-03T03:03:53;55.97;44.62;87.03;;
60031;Laerm;45901;47.600;9.890;2022-09-03T03:06:20;52.44;45.94;63.08;;
60031;Laerm;45901;47.600;9.890;2022-09-03T03:08:49;55.61;48.64;62.67;;
60031;Laerm;45901;47.600;9.890;2022-09-03T03:11:18;55.98;49.46;64.31;;
60031;Laerm;45901;47.600;9.890;2022-09-03T03:13:47;54.32;49.25;62.47;;
60031;Laerm;45901;47.600;9.890;2022-09-03T03:16:16;55.39;49.02;62.31;;
60031;Laerm;45901;47.600;9.890;2022-09-03T03:18:43;57.34;50.19;63.08;;
60031;Laerm;45901;47.600;9.890;2022-09-03T03:21:15;55.40;48.81;64.50;;
60031;Laerm;45901;47.600;9.890;2022-09-03T03:23:46;56.35;48.63;64.30;;
60031;Laerm;45901;47.600;9.890;2022-09-03T03:26:17;56.62;50.09;64.77;;
60031;Laerm;45901;47.600;9.890;2022-09-03T03:28:48;56.66;49.43;62.74;;
60031;Laerm;45901;47.600;9.890;2022-09-03T03:31:18;54.46;47.65;61.49;;
60031;Laerm;45901;47.600;9.890;2022-09-03T03:33:50;51.90;46.18;58.74;;
60031;Laerm;45901;47.600;9.890;2022-09-03T03:36:22;50.58;44.82;55.04;;
60031;Laerm;45901;47.600;9.890;2022-09-03T03:42:37;50.30;46.33;54.26;;
60031;Laerm;45901;47.600;9.890;2022-09-03T03:45:09;49.41;44.62;58.35;;
60031;Laerm;45901;47.600;9.890;2022-09-03T03:47:37;48.18;45.17;52.00;;
60031;Laerm;45901;47.600;9.890;2022-09-03T03:50:06;53.59;45.14;87.79;;
60031;Laerm;45901;47.600;9.890;2022-09-03T03:52:35;46.56;44.19;51.43;;
60031;Laerm;45901;47.600;9.890;2022-09-03T03:55:04;46.39;44.19;50.53;;
60031;Laerm;45901;47.600;9.890;2022-09-03T03:57:31;46.37;44.19;50.39;;
60031;Laerm;45901;47.600;9.890;2022-09-03T04:00:00;47.17;43.94;56.89;;
60031;Laerm;45901;47.600;9.890;2022-09-03T04:02:28;46.00;44.03;49.08;;
60031;Laerm;45901;47.600;9.890;2022-09-03T04:04:59;46.12;44.23;50.07;;
60031;Laerm;45901;47.600;9.890;2022-09-03T04:07:27;45.94;44.15;48.81;;
60031;Laerm;45901;47.600;9.890;2022-09-03T04:09:57;45.79;44.07;48.61;;
60031;Laerm;45901;47.600;9.890;2022-09-03T04:12:26;46.00;44.23;48.34;;
60031;Laerm;45901;47.600;9.890;2022-09-03T04:14:56;46.18;44.15;56.81;;
60031;Laerm;45901;47.600;9.890;2022-09-03T04:17:27;45.82;43.90;48.91;;
60031;Laerm;45901;47.600;9.890;2022-09-03T04:20:07;45.34;43.72;49.78;;
60031;Laerm;45901;47.600;9.890;2022-09-03T04:22:37;45.11;43.58;51.75;;
60031;Laerm;45901;47.600;9.890;2022-09-03T05:44:54;43.94;40.80;59.31;;
60031;Laerm;45901;47.600;9.890;2022-09-03T05:47:22;46.58;41.53;70.71;;
60031;Laerm;45901;47.600;9.890;2022-09-03T05:49:49;43.65;41.06;68.55;;
60031;Laerm;45901;47.600;9.890;2022-09-03T05:52:16;42.44;40.23;52.78;;
60031;Laerm;45901;47.600;9.890;2022-09-03T05:54:55;42.21;39.70;50.27;;
60031;Laerm;45901;47.600;9.890;2022-09-03T05:57:57;41.49;39.70;44.58;;
60031;Laerm;45901;47.600;9.890;2022-09-03T06:00:28;44.72;39.70;57.20;;
60031;Laerm;45901;47.600;9.890;2022-09-03T06:02:55;43.06;39.70;69.19;;
60031;Laerm;45901;47.600;9.890;2022-09-03T06:05:23;42.16;39.92;54.07;;
60031;Laerm;45901;47.600;9.890;2022-09-03T06:07:51;42.58;39.70;53.95;;
60031;Laerm;45901;47.600;9.890;2022-09-03T06:10:18;42.17;40.33;58.28;;
60031;Laerm;45901;47.600;9.890;2022-09-03T06:12:50;42.63;40.71;55.52;;
60031;Laerm;45901;47.600;9.890;2022-09-03T06:15:18;43.75;40.71;56.78;;
60031;Laerm;45901;47.600;9.890;2022-09-03T06:17:46;42.69;40.62;53.70;;
60031;Laerm;45901;47.600;9.890;2022-09-03T06:20:14;43.31;40.80;56.33;;
60031;Laerm;45901;47.600;9.890;2022-09-03T06:22:41;43.53;41.06;61.22;;
60031;Laerm;45901;47.600;9.890;2022-09-03T06:25:10;42.58;40.13;58.65;;
60031;Laerm;45901;47.600;9.890;2022-09-03T06:27:38;42.68;40.43;48.83;;
60031;Laerm;45901;47.600;9.890;2022-09-03T06:30:06;42.81;40.13;65.63;;
60031;Laerm;45901;47.600;9.890;2022-09-03T06:32:33;42.47;40.03;51.13;;
60031;Laerm;45901;47.600;9.890;2022-09-03T06:35:04;42.32;40.43;54.22;;
60031;Laerm;45901;47.600;9.890;2022-09-03T06:37:37;42.57;39.70;51.33;;
60031;Laerm;45901;47.600;9.890;2022-09-03T06:40:06;42.24;40.13;64.16;;
60031;Laerm;45901;47.600;9.890;2022-09-03T06:42:38;42.81;40.43;64.38;;
60031;Laerm;45901;47.600;9.890;2022-09-03T06:45:07;43.19;40.23;62.86;;
60031;Laerm;45901;47.600;9.890;2022-09-03T06:47:35;42.33;40.23;53.40;;
60031;Laerm;45901;47.600;9.890;2022-09-03T06:50:05;44.72;40.71;49.15;;
60031;Laerm;45901;47.600;9.890;2022-09-03T06:52:33;43.66;40.53;60.82;;
60031;Laerm;45901;47.600;9.890;2022-09-03T06:55:01;42.62;40.62;48.10;;
60031;Laerm;45901;47.600;9.890;2022-09-03T06:57:28;42.40;40.23;49.94;;
60031;Laerm;45901;47.600;9.890;2022-09-03T06:59:56;46.23;39.92;58.52;;
60031;Laerm;45901;47.600;9.890;2022-09-03T07:02:23;42.71;39.89;56.00;;
60031;Laerm;45901;47.600;9.890;2022-09-03T07:04:50;42.32;39.58;51.38;;
60031;Laerm;45901;47.600;9.890;2022-09-03T07:07:19;41.40;39.35;52.24;;
60031;Laerm;45901;47.600;9.890;2022-09-03T07:09:47;42.54;40.33;53.32;;
60031;Laerm;45901;47.600;9.890;2022-09-03T07:12:15;42.18;39.92;47.54;;
60031;Laerm;45901;47.600;9.890;2022-09-03T07:14:46;42.24;39.34;56.14;;
60031;Laerm;45901;47.600;9.890;2022-09-03T07:17:13;43.44;39.92;52.15;;
60031;Laerm;45901;47.600;9.890;2022-09-03T07:19:41;42.85;39.81;52.54;;
60031;Laerm;45901;47.600;9.890;2022-09-03T07:22:09;42.04;39.81;50.89;;
60031;Laerm;45901;47.600;9.890;2022-09-03T07:24:40;42.29;38.95;49.27;;
60031;Laerm;45901;47.600;9.890;2022-09-03T07:27:17;43.31;39.58;57.34;;
60031;Laerm;45901;47.600;9.890;2022-09-03T07:30:01;43.31;39.58;57.52;;
60031;Laerm;45901;47.600;9.890;2022-09-03T07:32:40;41.93;39.70;50.70;;
60031;Laerm;45901;47.600;9.890;2022-09-03T07:39:31;43.39;39.58;56.87;;
60031;Laerm;45901;47.600;9.890;2022-09-03T07:42:16;42.38;39.81;56.71;;
60031;Laerm;45901;47.600;9.890;2022-09-03T07:44:49;42.95;39.46;58.16;;
60031;Laerm;45901;47.600;9.890;2022-09-03T07:47:30;42.36;39.70;49.33;;
60031;Laerm;45901;47.600;9.890;2022-09-03T07:50:03;41.99;39.34;53.55;;
60031;Laerm;45901;47.600;9.890;2022-09-03T07:53:08;41.65;39.23;53.11;;
60031;Laerm;45901;47.600;9.890;2022-09-03T07:56:01;41.72;39.46;53.15;;
60031;Laerm;45901;47.600;9.890;2022-09-03T07:58:38;42.18;39.58;48.66;;
60031;Laerm;45901;47.600;9.890;2022-09-03T08:01:32;45.70;39.92;60.32;;
60031;Laerm;45901;47.600;9.890;2022-09-03T08:04:10;43.39;39.70;54.52;;
60031;Laerm;45901;47.600;9.890;2022-09-03T08:07:28;41.66;39.58;48.07;;
60031;Laerm;45901;47.600;9.890;2022-09-03T08:10:43;42.78;39.70;51.48;;
60031;Laerm;45901;47.600;9.890;2022-09-03T08:14:02;43.56;39.58;54.10;;
60031;Laerm;45901;47.600;9.890;2022-09-03T08:16:45;54.33;40.43;63.37;;
60031;Laerm;45901;47.600;9.890;2022-09-03T08:19:18;49.87;40.23;62.09;;
60031;Laerm;45901;47.600;9.890;2022-09-03T08:22:40;41.99;39.46;47.91;;
60031;Laerm;45901;47.600;9.890;2022-09-03T08:26:40;56.09;39.70;65.86;;
60031;Laerm;45901;47.600;9.890;2022-09-03T08:29:21;54.14;39.68;64.83;;
60031;Laerm;45901;47.600;9.890;2022-09-03T08:31:55;42.64;39.34;50.08;;
60031;Laerm;45901;47.600;9.890;2022-09-03T08:34:29;42.02;39.34;54.88;;
60031;Laerm;45901;47.600;9.890;2022-09-03T08:37:32;43.37;39.81;62.05;;
60031;Laerm;45901;47.600;9.890;2022-09-03T08:40:51;42.74;39.70;56.04;;
60031;Laerm;45901;47.600;9.890;2022-09-03T09:01:09;46.34;39.81;61.52;;
60031;Laerm;45901;47.600;9.890;2022-09-03T09:03:44;43.15;40.03;52.10;;
60031;Laerm;45901;47.600;9.890;2022-09-03T09:49:52;42.11;38.05;49.56;;
60031;Laerm;45901;47.600;9.890;2022-09-03T09:53:15;43.40;39.08;58.78;;
60031;Laerm;45901;47.600;9.890;2022-09-03T09:56:57;43.56;38.67;67.86;;
60031;Laerm;45901;47.600;9.890;2022-09-03T10:02:44;42.45;38.37;62.28;;
60031;Laerm;45901;47.600;9.890;2022-09-03T10:06:04;45.24;38.95;61.53;;
60031;Laerm;45901;47.600;9.890;2022-09-03T10:09:10;42.91;36.45;58.50;;
60031;Laerm;45901;47.600;9.890;2022-09-03T10:12:29;41.75;35.94;58.26;;
60031;Laerm;45901;47.600;9.890;2022-09-03T10:15:24;42.60;37.32;61.00;;
60031;Laerm;45901;47.600;9.890;2022-09-03T10:18:01;46.90;38.21;64.55;;
60031;Laerm;45901;47.600;9.890;2022-09-03T10:20:41;42.58;36.98;50.49;;
60031;Laerm;45901;47.600;9.890;2022-09-03T10:23:49;42.29;37.12;55.06;;
60031;Laerm;45901;47.600;9.890;2022-09-03T10:26:31;42.42;36.91;59.71;;
60031;Laerm;45901;47.600;9.890;2022-09-03T10:29:03;43.80;34.69;58.30;;
60031;Laerm;45901;47.600;9.890;2022-09-03T10:31:44;43.06;36.91;60.12;;
60031;Laerm;45901;47.600;9.890;2022-09-03T10:34:43;42.76;36.20;59.49;;
60031;Laerm;45901;47.600;9.890;2022-09-03T10:37:20;42.32;37.12;60.12;;
60031;Laerm;45901;47.600;9.890;2022-09-03T10:40:07;45.40;38.95;64.06;;
60031;Laerm;45901;47.600;9.890;2022-09-03T10:42:45;42.92;36.91;63.13;;
60031;Laerm;45901;47.600;9.890;2022-09-03T10:45:31;44.87;38.95;58.66;;
60031;Laerm;45901;47.600;9.890;2022-09-03T10:48:37;43.34;36.91;63.64;;
60031;Laerm;45901;47.600;9.890;2022-09-03T10:51:26;50.35;38.05;77.90;;
60031;Laerm;45901;47.600;9.890;2022-09-03T11:05:11;46.99;36.20;73.87;;
60031;Laerm;45901;47.600;9.890;2022-09-03T11:08:02;42.65;35.36;55.27;;
60031;Laerm;45901;47.600;9.890;2022-09-03T11:11:11;41.86;36.69;55.87;;
60031;Laerm;45901;47.600;9.890;2022-09-03T11:18:59;42.36;36.20;61.15;;
60031;Laerm;45901;47.600;9.890;2022-09-03T11:25:53;43.96;37.70;60.29;;
60031;Laerm;45901;47.600;9.890;2022-09-03T11:29:19;43.43;37.32;59.67;;
60031;Laerm;45901;47.600;9.890;2022-09-03T11:31:57;46.81;38.81;65.17;;
60031;Laerm;45901;47.600;9.890;2022-09-03T11:34:32;42.62;38.05;62.46;;
60031;Laerm;45901;47.600;9.890;2022-09-03T11:37:16;46.75;39.34;66.79;;
60031;Laerm;45901;47.600;9.890;2022-09-03T11:39:52;50.28;40.33;71.90;;
60031;Laerm;45901;47.600;9.890;2022-09-03T11:42:31;49.98;40.80;73.39;;
60031;Laerm;45901;47.600;9.890;2022-09-03T11:45:13;55.04;41.75;79.46;;
60031;Laerm;45901;47.600;9.890;2022-09-03T11:47:46;44.42;41.06;59.13;;
60031;Laerm;45901;47.600;9.890;2022-09-03T11:50:22;45.76;38.95;70.20;;
60031;Laerm;45901;47.600;9.890;2022-09-03T11:52:52;46.04;40.03;69.32;;
60031;Laerm;45901;47.600;9.890;2022-09-03T11:55:31;47.41;40.23;69.72;;
60031;Laerm;45901;47.600;9.890;2022-09-03T11:58:11;43.68;39.58;56.52;;
60031;Laerm;45901;47.600;9.890;2022-09-03T12:00:40;46.96;41.89;62.74;;
60031;Laerm;45901;47.600;9.890;2022-09-03T12:03:14;52.07;42.58;74.85;;
60031;Laerm;45901;47.600;9.890;2022-09-03T12:06:03;45.49;40.80;60.47;;
60031;Laerm;45901;47.600;9.890;2022-09-03T12:09:05;48.70;42.41;62.36;;
60031;Laerm;45901;47.600;9.890;2022-09-03T12:11:51;49.82;46.18;60.63;;
60031;Laerm;45901;47.600;9.890;2022-09-03T12:14:32;45.95;42.53;57.35;;
60031;Laerm;45901;47.600;9.890;2022-09-03T12:17:15;46.37;43.09;62.13;;
60031;Laerm;45901;47.600;9.890;2022-09-03T12:19:49;50.12;43.86;74.91;;
60031;Laerm;45901;47.600;9.890;2022-09-03T12:22:21;49.60;45.14;62.92;;
60031;Laerm;45901;47.600;9.890;2022-09-03T12:24:48;52.95;48.00;61.80;;
60031;Laerm;45901;47.600;9.890;2022-09-03T12:27:20;52.84;47.34;61.76;;
60031;Laerm;45901;47.600;9.890;2022-09-03T12:29:56;51.89;46.97;61.92;;
60031;Laerm;45901;47.600;9.890;2022-09-03T12:32:26;55.33;46.97;87.27;;
60031;Laerm;45901;47.600;9.890;2022-09-03T12:34:54;67.60;46.15;88.43;;
60031;Laerm;45901;47.600;9.890;2022-09-03T12:37:23;51.26;48.03;57.24;;
60031;Laerm;45901;47.600;9.890;2022-09-03T12:39:53;55.69;50.44;64.43;;
60031;Laerm;45901;47.600;9.890;2022-09-03T12:42:25;56.18;50.88;63.86;;
60031;Laerm;45901;47.600;9.890;2022-09-03T12:44:54;55.54;50.26;63.24;;
60031;Laerm;45901;47.600;9.890;2022-09-03T12:47:23;57.80;52.33;64.54;;
60031;Laerm;45901;47.600;9.890;2022-09-03T12:49:56;58.91;52.83;65.50;;
60031;Laerm;45901;47.600;9.890;2022-09-03T12:52:28;61.11;55.42;67.31;;
60031;Laerm;45901;47.600;9.890;2022-09-03T12:55:01;59.23;54.78;64.91;;
60031;Laerm;45901;47.600;9.890;2022-09-03T12:57:34;57.07;51.50;64.66;;
60031;Laerm;45901;47.600;9.890;2022-09-03T13:00:09;54.43;46.76;62.87;;
60031;Laerm;45901;47.600;9.890;2022-09-03T13:02:45;49.88;44.80;60.81;;
60031;Laerm;45901;47.600;9.890;2022-09-03T13:05:19;56.11;43.19;92.14;;
60031;Laerm;45901;47.600;9.890;2022-09-03T13:07:50;45.06;43.24;54.39;;
60031;Laerm;45901;47.600;9.890;2022-09-03T13:10:25;44.47;43.29;47.61;;
60031;Laerm;45901;47.600;9.890;2022-09-03T13:12:58;48.52;42.98;74.41;;
60031;Laerm;45901;47.600;9.890;2022-09-03T13:15:29;51.95;47.65;59.47;;
60031;Laerm;45901;47.600;9.890;2022-09-03T13:18:09;51.35;47.24;56.66;;
60031;Laerm;45901;47.600;9.890;2022-09-03T13:21:00;51.24;47.34;56.11;;
60031;Laerm;45901;47.600;9.890;2022-09-03T13:23:47;47.33;42.82;61.93;;
60031;Laerm;45901;47.600;9.890;2022-09-03T13:26:26;45.65;42.47;54.46;;
60031;Laerm;45901;47.600;9.890;2022-09-03T13:32:01;50.99;42.41;80.98;;
60031;Laerm;45901;47.600;9.890;2022-09-03T13:34:33;44.28;41.38;65.10;;
60031;Laerm;45901;47.600;9.890;2022-09-03T13:37:15;57.88;41.30;73.82;;
60031;Laerm;45901;47.600;9.890;2022-09-03T13:39:50;44.12;40.53;62.23;;
60031;Laerm;45901;47.600;9.890;2022-09-03T13:42:24;45.79;40.23;64.03;;
60031;Laerm;45901;47.600;9.890;2022-09-03T13:44:58;45.71;38.81;61.16;;
60031;Laerm;45901;47.600;9.890;2022-09-03T13:47:34;44.52;39.81;57.78;;
60031;Laerm;45901;47.600;9.890;2022-09-03T13:50:08;45.38;39.92;59.50;;
60031;Laerm;45901;47.600;9.890;2022-09-03T13:52:52;45.89;38.81;61.89;;
60031;Laerm;45901;47.600;9.890;2022-09-03T13:55:30;47.99;38.87;61.93;;
60031;Laerm;45901;47.600;9.890;2022-09-03T13:58:04;42.01;37.88;56.28;;
60031;Laerm;45901;47.600;9.890;2022-09-03T14:00:39;45.72;38.52;60.68;;
60031;Laerm;45901;47.600;9.890;2022-09-03T14:03:20;44.77;39.08;66.66;;
60031;Laerm;45901;47.600;9.890;2022-09-03T14:06:03;44.13;38.67;59.09;;
60031;Laerm;45901;47.600;9.890;2022-09-03T14:08:39;41.91;36.20;55.25;;
60031;Laerm;45901;47.600;9.890;2022-09-03T14:11:25;42.43;38.81;54.38;;
60031;Laerm;45901;47.600;9.890;2022-09-03T14:14:09;44.07;37.70;70.23;;
60031;Laerm;45901;47.600;9.890;2022-09-03T14:16:44;44.75;37.32;66.43;;
60031;Laerm;45901;47.600;9.890;2022-09-03T14:19:22;44.47;38.37;62.12;;
60031;Laerm;45901;47.600;9.890;2022-09-03T14:21:59;48.37;39.08;68.75;;
60031;Laerm;45901;47.600;9.890;2022-09-03T14:24:38;48.11;38.81;74.06;;
60031;Laerm;45901;47.600;9.890;2022-09-03T14:27:09;43.67;38.05;56.32;;
60031;Laerm;45901;47.600;9.890;2022-09-03T14:29:37;43.02;38.37;59.30;;
60031;Laerm;45901;47.600;9.890;2022-09-03T14:32:31;43.27;37.52;56.80;;
60031;Laerm;45901;47.600;9.890;2022-09-03T14:35:34;41.95;37.70;58.29;;
60031;Laerm;45901;47.600;9.890;2022-09-03T14:38:35;42.24;37.88;60.82;;
60031;Laerm;45901;47.600;9.890;2022-09-03T14:41:28;42.09;36.91;55.38;;
60031;Laerm;45901;47.600;9.890;2022-09-03T14:47:41;41.42;36.91;45.69;;
60031;Laerm;45901;47.600;9.890;2022-09-03T14:51:16;41.56;37.12;57.00;;
60031;Laerm;45901;47.600;9.890;2022-09-03T14:57:38;42.62;38.21;56.25;;
60031;Laerm;45901;47.600;9.890;2022-09-03T15:00:51;45.36;36.91;60.19;;
60031;Laerm;45901;47.600;9.890;2022-09-03T15:07:29;41.95;38.21;55.43;;
60031;Laerm;45901;47.600;9.890;2022-09-03T15:10:17;43.05;36.91;56.41;;
60031;Laerm;45901;47.600;9.890;2022-09-03T15:12:58;42.13;38.05;49.06;;
60031;Laerm;45901;47.600;9.890;2022-09-03T15:15:47;41.94;36.91;58.78;;
60031;Laerm;45901;47.600;9.890;2022-09-03T15:18:36;41.58;37.88;50.76;;
60031;Laerm;45901;47.600;9.890;2022-09-03T15:21:48;43.57;37.52;60.45;;
60031;Laerm;45901;47.600;9.890;2022-09-03T15:24:31;44.72;37.32;70.70;;
60031;Laerm;45901;47.600;9.890;2022-09-03T15:30:21;43.97;37.70;60.20;;
60031;Laerm;45901;47.600;9.890;2022-09-03T15:33:11;42.23;36.91;51.36;;
60031;Laerm;45901;47.600;9.890;2022-09-03T15:36:16;42.24;36.91;51.56;;
60031;Laerm;45901;47.600;9.890;2022-09-03T15:39:14;42.45;37.52;54.65;;
60031;Laerm;45901;47.600;9.890;2022-09-03T15:42:16;42.82;38.21;64.92;;
60031;Laerm;45901;47.600;9.890;2022-09-03T15:44:50;44.60;38.21;62.10;;
60031;Laerm;45901;47.600;9.890;2022-09-03T15:47:52;43.19;37.52;61.67;;
60031;Laerm;45901;47.600;9.890;2022-09-03T15:50:54;52.07;38.05;86.67;;
60031;Laerm;45901;47.600;9.890;2022-09-03T15:53:53;43.24;37.52;66.85;;
60031;Laerm;45901;47.600;9.890;2022-09-03T15:56:35;48.65;37.32;70.00;;
60031;Laerm;45901;47.600;9.890;2022-09-03T15:59:22;44.46;37.12;63.44;;
60031;Laerm;45901;47.600;9.890;2022-09-03T16:02:06;45.89;37.32;64.54;;
60031;Laerm;45901;47.600;9.890;2022-09-03T16:04:52;45.05;38.67;54.73;;
60031;Laerm;45901;47.600;9.890;2022-09-03T16:07:38;46.60;42.98;54.50;;
60031;Laerm;45901;47.600;9.890;2022-09-03T16:10:32;46.30;38.37;53.96;;
60031;Laerm;45901;47.600;9.890;2022-09-03T16:13:29;43.37;37.70;57.05;;
60031;Laerm;45901;47.600;9.890;2022-09-03T16:16:27;42.32;38.05;59.94;;
60031;Laerm;45901;47.600;9.890;2022-09-03T16:19:09;41.52;37.32;55.41;;
60031;Laerm;45901;47.600;9.890;2022-09-03T16:21:45;42.79;37.70;58.95;;
60031;Laerm;45901;47.600;9.890;2022-09-03T16:24:19;43.24;37.88;53.71;;
60031;Laerm;45901;47.600;9.890;2022-09-03T16:26:53;42.42;38.37;55.34;;
60031;Laerm;45901;47.600;9.890;2022-09-03T16:29:26;43.09;38.95;58.90;;
60031;Laerm;45901;47.600;9.890;2022-09-03T16:32:14;45.26;38.81;60.45;;
60031;Laerm;45901;47.600;9.890;2022-09-03T16:35:00;43.09;38.52;54.05;;
60031;Laerm;45901;47.600;9.890;2022-09-03T16:37:38;42.68;38.52;49.33;;
60031;Laerm;45901;47.600;9.890;2022-09-03T16:40:17;45.31;38.81;58.33;;
60031;Laerm;45901;47.600;9.890;2022-09-03T16:42:52;42.44;38.52;56.04;;
60031;Laerm;45901;47.600;9.890;2022-09-03T16:45:32;43.43;36.45;60.09;;
60031;Laerm;45901;47.600;9.890;2022-09-03T16:48:19;44.77;38.67;62.94;;
60031;Laerm;45901;47.600;9.890;2022-09-03T16:51:04;42.00;38.05;58.02;;
60031;Laerm;45901;47.600;9.890;2022-09-03T16:53:51;41.33;37.12;53.31;;
60031;Laerm;45901;47.600;9.890;2022-09-03T16:56:47;42.49;37.52;55.42;;
60031;Laerm;45901;47.600;9.890;2022-09-03T16:59:44;46.41;38.21;59.83;;
60031;Laerm;45901;47.600;9.890;2022-09-03T17:03:16;46.81;37.52;66.20;;
60031;Laerm;45901;47.600;9.890;2022-09-03T17:06:08;45.61;38.95;61.10;;
60031;Laerm;45901;47.600;9.890;2022-09-03T17:08:49;42.33;37.32;62.75;;
60031;Laerm;45901;47.600;9.890;2022-09-03T17:11:42;41.85;38.21;52.29;;
60031;Laerm;45901;47.600;9.890;2022-09-03T17:14:51;43.65;37.70;58.71;;
60031;Laerm;45901;47.600;9.890;2022-09-03T17:17:48;41.37;37.70;47.10;;
60031;Laerm;45901;47.600;9.890;2022-09-03T17:20:36;43.83;38.21;59.29;;
60031;Laerm;45901;47.600;9.890;2022-09-03T17:23:40;42.10;37.88;54.16;;
60031;Laerm;45901;47.600;9.890;2022-09-03T17:26:20;41.76;37.70;52.95;;
60031;Laerm;45901;47.600;9.890;2022-09-03T17:29:02;42.88;37.88;56.26;;
60031;Laerm;45901;47.600;9.890;2022-09-03T17:31:45;44.18;38.37;62.53;;
60031;Laerm;45901;47.600;9.890;2022-09-03T17:34:35;46.19;38.37;72.78;;
60031;Laerm;45901;47.600;9.890;2022-09-03T17:37:20;42.66;38.37;54.06;;
60031;Laerm;45901;47.600;9.890;2022-09-03T17:40:10;43.36;38.81;55.45;;
60031;Laerm;45901;47.600;9.890;2022-09-03T17:42:53;43.47;38.21;56.63;;
60031;Laerm;45901;47.600;9.890;2022-09-03T17:45:40;43.50;39.21;60.01;;
60031;Laerm;45901;47.600;9.890;2022-09-03T17:48:49;42.74;38.81;52.03;;
60031;Laerm;45901;47.600;9.890;2022-09-03T17:51:31;44.18;38.95;59.64;;
60031;Laerm;45901;47.600;9.890;2022-09-03T17:54:06;42.70;39.21;57.77;;
60031;Laerm;45901;47.600;9.890;2022-09-03T17:56:48;41.84;38.52;54.81;;
60031;Laerm;45901;47.600;9.890;2022-09-03T17:59:28;45.06;38.95;59.98;;
60031;Laerm;45901;47.600;9.890;2022-09-03T18:02:03;45.69;39.08;62.85;;
60031;Laerm;45901;47.600;9.890;2022-09-03T18:04:44;42.99;39.08;71.41;;
60031;Laerm;45901;47.600;9.890;2022-09-03T18:07:21;42.02;38.05;50.63;;
60031;Laerm;45901;47.600;9.890;2022-09-03T18:10:02;42.96;38.95;59.45;;
60031;Laerm;45901;47.600;9.890;2022-09-03T18:12:42;41.73;38.52;46.84;;